createdAt,value
2022-10-19T00:00:51.157Z,14.60
2022-10-19T00:03:22.308Z,14.59
2022-10-19T00:05:51.290Z,14.60
2022-10-19T00:08:19.556Z,14.60
2022-10-19T00:10:47.555Z,14.60
2022-10-19T00:13:15.563Z,14.61
2022-10-19T00:15:45.117Z,14.62
2022-10-19T00:18:14.469Z,14.63
2022-10-19T00:20:43.021Z,14.63
2022-10-19T00:23:11.096Z,14.63
2022-10-19T00:25:39.116Z,14.65
2022-10-19T00:28:07.123Z,14.65
2022-10-19T00:30:37.754Z,14.65
2022-10-19T00:33:05.748Z,14.66
2022-10-19T00:35:35.159Z,14.66
2022-10-19T00:38:03.190Z,14.69
2022-10-19T00:40:31.216Z,14.70
2022-10-19T00:42:59.260Z,14.72
2022-10-19T00:45:27.422Z,14.73
2022-10-19T00:47:55.779Z,14.73
2022-10-19T00:50:23.908Z,14.72
2022-10-19T00:52:53.304Z,14.73
2022-10-19T00:55:21.360Z,14.75
2022-10-19T01:00:22.646Z,14.75
2022-10-19T01:02:50.650Z,14.76
2022-10-19T01:05:18.770Z,14.67
2022-10-19T01:07:46.871Z,14.69
2022-10-19T01:10:16.493Z,14.72
2022-10-19T01:12:56.383Z,14.71
2022-10-19T01:15:32.279Z,14.70
2022-10-19T01:18:06.569Z,14.71
2022-10-19T01:20:58.276Z,14.70
2022-10-19T01:23:54.322Z,14.69
2022-10-19T01:26:51.314Z,14.69
2022-10-19T01:29:24.119Z,14.70
2022-10-19T01:31:58.526Z,14.69
2022-10-19T01:34:29.566Z,14.66
2022-10-19T01:37:01.852Z,14.64
2022-10-19T01:39:36.378Z,14.67
2022-10-19T01:42:08.216Z,14.68
2022-10-19T01:44:40.064Z,14.67
2022-10-19T01:47:12.434Z,14.68
2022-10-19T01:49:43.357Z,14.69
2022-10-19T01:52:13.960Z,14.69
2022-10-19T01:54:46.414Z,14.71
2022-10-19T01:57:18.545Z,14.72
2022-10-19T01:59:47.558Z,14.74
2022-10-19T02:02:18.352Z,14.76
2022-10-19T02:04:46.712Z,14.78
2022-10-19T02:07:14.808Z,14.79
2022-10-19T02:09:42.772Z,14.80
2022-10-19T02:12:11.607Z,14.82
2022-10-19T02:14:41.912Z,14.83
2022-10-19T02:17:12.564Z,14.83
2022-10-19T02:19:42.041Z,14.83
2022-10-19T02:22:10.695Z,14.84
2022-10-19T02:24:38.682Z,14.85
2022-10-19T02:27:07.915Z,14.86
2022-10-19T02:29:36.207Z,14.86
2022-10-19T02:32:04.578Z,14.86
2022-10-19T02:34:32.726Z,14.83
2022-10-19T02:37:02.120Z,14.81
2022-10-19T02:39:30.244Z,14.84
2022-10-19T02:42:01.995Z,14.84
2022-10-19T02:44:32.672Z,14.84
2022-10-19T02:47:03.674Z,14.79
2022-10-19T02:49:31.939Z,14.81
2022-10-19T02:52:03.353Z,14.83
2022-10-19T02:54:31.374Z,14.77
2022-10-19T02:56:59.442Z,14.76
2022-10-19T02:59:27.601Z,14.70
2022-10-19T03:01:55.589Z,14.73
2022-10-19T03:04:23.559Z,14.73
2022-10-19T03:06:51.545Z,14.70
2022-10-19T03:09:21.125Z,14.70
2022-10-19T03:11:49.162Z,14.64
2022-10-19T03:14:17.220Z,14.62
2022-10-19T03:16:45.224Z,14.62
2022-10-19T03:19:13.214Z,14.62
2022-10-19T03:21:41.239Z,14.56
2022-10-19T03:24:09.294Z,14.56
2022-10-19T03:26:38.653Z,14.53
2022-10-19T03:29:06.633Z,14.49
2022-10-19T03:31:34.678Z,14.48
2022-10-19T03:34:02.697Z,14.46
2022-10-19T03:36:32.160Z,14.44
2022-10-19T03:39:02.126Z,14.41
2022-10-19T03:41:31.508Z,14.39
2022-10-19T03:46:34.542Z,14.33
2022-10-19T03:49:02.591Z,14.28
2022-10-19T03:51:31.606Z,14.24
2022-10-19T03:54:01.130Z,14.23
2022-10-19T03:56:30.481Z,14.23
2022-10-19T03:58:59.910Z,14.23
2022-10-19T04:01:31.070Z,14.23
2022-10-19T04:04:00.675Z,14.24
2022-10-19T04:06:30.785Z,14.25
2022-10-19T04:08:59.156Z,14.26
2022-10-19T04:11:29.043Z,14.28
2022-10-19T04:13:58.296Z,14.27
2022-10-19T04:16:27.593Z,14.29
2022-10-19T04:18:57.173Z,14.28
2022-10-19T04:21:26.494Z,14.29
2022-10-19T04:23:55.887Z,14.29
2022-10-19T04:26:24.053Z,14.25
2022-10-19T04:28:52.137Z,14.29
2022-10-19T04:31:20.286Z,14.30
2022-10-19T04:33:48.307Z,14.31
2022-10-19T04:36:17.839Z,14.32
2022-10-19T04:38:46.063Z,14.31
2022-10-19T04:41:15.119Z,14.34
2022-10-19T04:43:45.292Z,14.31
2022-10-19T04:46:15.470Z,14.33
2022-10-19T04:48:44.301Z,14.33
2022-10-19T04:51:12.896Z,14.33
2022-10-19T04:53:43.043Z,14.35
2022-10-19T04:56:13.685Z,14.36
2022-10-19T04:58:41.741Z,14.37
2022-10-19T05:01:10.904Z,14.39
2022-10-19T05:03:39.040Z,14.40
2022-10-19T05:06:08.091Z,14.39
2022-10-19T05:08:36.729Z,14.39
2022-10-19T05:11:07.985Z,14.40
2022-10-19T05:13:36.553Z,14.40
2022-10-19T05:16:06.623Z,14.41
2022-10-19T05:18:59.758Z,14.43
2022-10-19T05:21:29.151Z,14.40
2022-10-19T05:23:57.545Z,14.42
2022-10-19T05:26:29.068Z,14.43
2022-10-19T05:28:59.468Z,14.43
2022-10-19T05:31:28.970Z,14.43
2022-10-19T05:33:57.448Z,14.40
2022-10-19T05:36:27.494Z,14.41
2022-10-19T05:38:57.000Z,14.38
2022-10-19T05:41:27.338Z,14.40
2022-10-19T05:43:56.808Z,14.40
2022-10-19T05:46:26.321Z,14.41
2022-10-19T05:48:55.939Z,14.39
2022-10-19T05:51:24.771Z,14.40
2022-10-19T05:53:54.258Z,14.43
2022-10-19T05:56:23.578Z,14.44
2022-10-19T05:58:52.983Z,14.46
2022-10-19T06:01:21.476Z,14.36
2022-10-19T06:03:53.658Z,14.40
2022-10-19T06:06:21.804Z,14.29
2022-10-19T06:08:50.180Z,14.32
2022-10-19T06:11:19.801Z,14.21
2022-10-19T06:13:50.355Z,14.09
2022-10-19T06:16:21.041Z,14.11
2022-10-19T06:18:49.074Z,14.26
2022-10-19T06:21:18.774Z,14.32
2022-10-19T06:23:46.771Z,14.29
2022-10-19T06:26:15.840Z,14.26
2022-10-19T06:28:44.995Z,14.38
2022-10-19T06:31:13.619Z,14.43
2022-10-19T06:33:45.980Z,14.42
2022-10-19T06:36:18.339Z,14.47
2022-10-19T06:38:46.521Z,14.52
2022-10-19T06:41:14.670Z,14.53
2022-10-19T06:43:43.366Z,14.58
2022-10-19T06:46:14.858Z,14.62
2022-10-19T06:48:44.443Z,14.63
2022-10-19T06:51:13.606Z,14.59
2022-10-19T06:53:41.678Z,14.62
2022-10-19T06:56:11.124Z,14.64
2022-10-19T06:58:39.946Z,14.69
2022-10-19T07:01:08.908Z,14.73
2022-10-19T07:03:37.782Z,14.76
2022-10-19T07:06:09.159Z,14.81
2022-10-19T07:08:38.632Z,14.83
2022-10-19T07:11:32.051Z,14.86
2022-10-19T07:14:00.043Z,14.87
2022-10-19T07:16:28.228Z,14.88
2022-10-19T07:18:56.219Z,14.84
2022-10-19T07:21:25.577Z,14.87
2022-10-19T07:23:53.624Z,14.89
2022-10-19T07:26:26.222Z,14.86
2022-10-19T07:28:56.181Z,14.92
2022-10-19T07:31:25.592Z,14.95
2022-10-19T07:33:54.778Z,14.89
2022-10-19T07:36:23.455Z,14.89
2022-10-19T07:38:53.377Z,14.91
2022-10-19T07:41:23.876Z,14.97
2022-10-19T07:43:52.678Z,15.00
2022-10-19T07:46:22.972Z,14.95
2022-10-19T07:48:51.628Z,14.95
2022-10-19T07:51:20.657Z,14.93
2022-10-19T07:53:48.981Z,14.96
2022-10-19T07:56:20.396Z,14.95
2022-10-19T07:58:49.039Z,14.97
2022-10-19T08:01:18.571Z,14.89
2022-10-19T08:06:36.585Z,14.88
2022-10-19T08:09:05.262Z,14.93
2022-10-19T08:11:36.186Z,14.97
2022-10-19T08:14:04.732Z,14.92
2022-10-19T08:16:34.227Z,15.02
2022-10-19T08:19:03.755Z,15.08
2022-10-19T08:21:32.219Z,15.14
2022-10-19T08:24:00.335Z,15.18
2022-10-19T08:26:30.219Z,15.19
2022-10-19T08:29:02.155Z,15.10
2022-10-19T08:31:30.547Z,15.10
2022-10-19T08:33:58.637Z,14.99
2022-10-19T08:36:28.443Z,14.98
2022-10-19T08:38:56.482Z,14.97
2022-10-19T08:41:30.225Z,14.94
2022-10-19T08:44:15.125Z,15.00
2022-10-19T08:46:50.072Z,15.10
2022-10-19T08:49:20.468Z,15.17
2022-10-19T08:51:51.272Z,15.21
2022-10-19T08:54:19.486Z,15.24
2022-10-19T08:56:52.016Z,15.31
2022-10-19T08:59:29.400Z,15.35
2022-10-19T09:01:59.458Z,15.37
2022-10-19T09:04:30.188Z,15.36
2022-10-19T09:07:09.397Z,15.38
2022-10-19T09:09:43.409Z,15.37
2022-10-19T09:12:14.913Z,15.31
2022-10-19T09:14:53.131Z,15.16
2022-10-19T09:17:21.543Z,15.22
2022-10-19T09:19:49.558Z,15.19
2022-10-19T09:22:21.433Z,15.29
2022-10-19T09:24:52.069Z,15.32
2022-10-19T09:27:22.991Z,15.39
2022-10-19T09:29:55.990Z,15.41
2022-10-19T09:32:27.830Z,15.47
2022-10-19T09:34:58.774Z,15.47
2022-10-19T09:37:27.229Z,15.50
2022-10-19T09:39:56.182Z,15.46
2022-10-19T09:42:26.130Z,15.53
2022-10-19T09:44:55.905Z,15.31
2022-10-19T09:47:34.934Z,15.42
2022-10-19T09:50:16.380Z,15.51
2022-10-19T09:52:45.495Z,15.50
2022-10-19T09:55:24.843Z,15.59
2022-10-19T09:58:00.665Z,15.60
2022-10-19T10:00:36.705Z,15.56
2022-10-19T10:03:06.025Z,15.48
2022-10-19T10:05:35.613Z,15.58
2022-10-19T10:08:04.377Z,15.49
2022-10-19T10:10:37.769Z,15.39
2022-10-19T10:13:06.479Z,15.50
2022-10-19T10:15:44.176Z,15.58
2022-10-19T10:18:16.979Z,15.47
2022-10-19T10:20:58.606Z,15.43
2022-10-19T10:23:29.045Z,15.48
2022-10-19T10:25:57.916Z,15.53
2022-10-19T10:28:27.428Z,15.51
2022-10-19T10:31:01.360Z,15.50
2022-10-19T10:33:44.221Z,15.49
2022-10-19T10:36:13.805Z,15.62
2022-10-19T10:38:44.335Z,15.71
2022-10-19T10:41:14.916Z,15.71
2022-10-19T10:43:53.010Z,15.74
2022-10-19T10:46:26.110Z,15.74
2022-10-19T10:48:57.188Z,15.80
2022-10-19T10:51:32.033Z,15.84
2022-10-19T10:54:17.491Z,15.84
2022-10-19T10:56:55.859Z,15.90
2022-10-19T10:59:25.785Z,15.84
2022-10-19T11:02:01.233Z,15.86
2022-10-19T11:04:31.718Z,15.92
2022-10-19T11:07:03.141Z,16.00
2022-10-19T11:09:35.891Z,16.03
2022-10-19T11:12:06.645Z,16.04
2022-10-19T11:14:38.508Z,16.13
2022-10-19T11:17:13.663Z,16.10
2022-10-19T11:19:43.236Z,16.04
2022-10-19T11:22:23.599Z,16.09
2022-10-19T11:25:02.706Z,16.07
2022-10-19T11:27:43.010Z,16.23
2022-10-19T11:30:14.004Z,16.27
2022-10-19T11:32:57.310Z,16.31
2022-10-19T11:35:52.864Z,16.39
2022-10-19T11:38:43.339Z,16.42
2022-10-19T11:41:19.550Z,16.45
2022-10-19T11:43:57.299Z,16.47
2022-10-19T11:46:27.301Z,16.47
2022-10-19T11:49:19.285Z,16.40
2022-10-19T11:51:51.936Z,16.49
2022-10-19T11:54:32.204Z,16.53
2022-10-19T11:57:06.552Z,16.66
2022-10-19T11:59:47.798Z,16.73
2022-10-19T12:02:29.444Z,16.73
2022-10-19T12:05:00.407Z,16.82
2022-10-19T12:07:41.176Z,16.82
2022-10-19T12:10:17.312Z,16.81
2022-10-19T12:12:47.392Z,16.75
2022-10-19T12:15:23.693Z,16.79
2022-10-19T12:17:53.469Z,16.79
2022-10-19T12:20:29.511Z,16.83
2022-10-19T12:22:58.722Z,16.88
2022-10-19T12:25:27.586Z,16.92
2022-10-19T12:27:56.379Z,16.99
2022-10-19T12:30:25.505Z,16.94
2022-10-19T12:33:04.167Z,16.95
2022-10-19T12:35:49.163Z,16.97
2022-10-19T12:38:21.193Z,17.07
2022-10-19T12:40:53.233Z,17.05
2022-10-19T12:43:27.044Z,17.03
2022-10-19T12:46:00.886Z,17.07
2022-10-19T12:48:28.934Z,17.17
2022-10-19T12:51:06.300Z,17.22
2022-10-19T12:53:38.231Z,17.24
2022-10-19T12:56:07.795Z,17.31
2022-10-19T12:58:44.975Z,17.38
2022-10-19T13:01:19.775Z,17.30
2022-10-19T13:03:48.536Z,17.36
2022-10-19T13:06:20.375Z,17.30
2022-10-19T13:08:56.552Z,17.34
2022-10-19T13:11:24.705Z,17.36
2022-10-19T13:13:59.208Z,17.44
2022-10-19T13:16:49.743Z,17.37
2022-10-19T13:19:24.034Z,17.41
2022-10-19T13:22:18.843Z,17.47
2022-10-19T13:25:28.108Z,17.43
2022-10-19T13:28:01.934Z,17.44
2022-10-19T13:31:08.106Z,17.41
2022-10-19T13:33:54.255Z,17.47
2022-10-19T13:36:23.057Z,17.52
2022-10-19T13:39:12.349Z,17.51
2022-10-19T13:41:51.555Z,17.43
2022-10-19T13:44:27.037Z,17.47
2022-10-19T13:47:24.654Z,17.47
2022-10-19T13:50:07.789Z,17.48
2022-10-19T13:52:55.061Z,17.54
2022-10-19T13:55:47.233Z,17.55
2022-10-19T13:58:40.103Z,17.51
2022-10-19T14:01:23.044Z,17.54
2022-10-19T14:04:12.081Z,17.54
2022-10-19T14:06:42.742Z,17.49
2022-10-19T14:09:32.815Z,17.44
2022-10-19T14:12:06.924Z,17.45
2022-10-19T14:19:53.732Z,17.47
2022-10-19T14:22:26.013Z,17.50
2022-10-19T14:25:01.501Z,17.47
2022-10-19T14:27:29.690Z,17.48
2022-10-19T14:29:57.671Z,17.56
2022-10-19T14:32:28.629Z,17.54
2022-10-19T14:35:00.624Z,17.58
2022-10-19T14:37:28.771Z,17.54
2022-10-19T14:40:01.840Z,17.53
2022-10-19T14:42:44.205Z,17.60
2022-10-19T14:45:18.054Z,17.66
2022-10-19T14:47:55.583Z,17.75
2022-10-19T14:50:27.448Z,17.81
2022-10-19T14:52:59.050Z,17.79
2022-10-19T14:55:33.625Z,17.81
2022-10-19T14:58:01.913Z,17.79
2022-10-19T15:00:31.465Z,17.72
2022-10-19T15:03:02.601Z,17.64
2022-10-19T15:05:33.078Z,17.65
2022-10-19T15:08:07.802Z,17.65
2022-10-19T15:10:42.152Z,17.67
2022-10-19T15:13:20.289Z,17.62
2022-10-19T15:15:51.801Z,17.70
2022-10-19T15:18:43.860Z,17.67
2022-10-19T15:21:15.219Z,17.53
2022-10-19T15:23:45.389Z,17.53
2022-10-19T15:26:17.581Z,17.50
2022-10-19T15:28:46.265Z,17.51
2022-10-19T15:31:16.877Z,17.54
2022-10-19T15:33:49.482Z,17.55
2022-10-19T15:36:19.552Z,17.45
2022-10-19T15:38:49.037Z,17.33
2022-10-19T15:41:19.879Z,17.43
2022-10-19T15:43:50.232Z,17.40
2022-10-19T15:46:24.260Z,17.35
2022-10-19T15:48:55.553Z,17.19
2022-10-19T15:51:37.771Z,17.22
2022-10-19T15:54:07.818Z,17.24
2022-10-19T15:57:00.861Z,17.28
2022-10-19T15:59:28.861Z,17.28
2022-10-19T16:01:56.892Z,17.28
2022-10-19T16:04:26.271Z,17.18
2022-10-19T16:06:54.369Z,17.19
2022-10-19T16:09:22.723Z,17.06
2022-10-19T16:11:56.470Z,16.92
2022-10-19T16:14:26.215Z,16.82
2022-10-19T16:16:54.295Z,16.72
2022-10-19T16:19:22.281Z,16.76
2022-10-19T16:21:51.723Z,16.71
2022-10-19T16:24:19.747Z,16.73
2022-10-19T16:26:47.762Z,16.73
2022-10-19T16:29:15.786Z,16.67
2022-10-19T16:31:43.754Z,16.61
2022-10-19T16:34:11.766Z,16.54
2022-10-19T16:36:39.742Z,16.52
2022-10-19T16:39:09.289Z,16.53
2022-10-19T16:44:06.663Z,16.44
2022-10-19T16:46:34.664Z,16.43
2022-10-19T16:49:02.775Z,16.43
2022-10-19T16:51:35.396Z,16.38
2022-10-19T16:54:04.243Z,16.37
2022-10-19T16:56:34.009Z,16.30
2022-10-19T16:59:03.347Z,16.25
2022-10-19T17:01:32.252Z,16.19
2022-10-19T17:04:00.480Z,16.15
2022-10-19T17:06:29.078Z,16.15
2022-10-19T17:11:47.250Z,16.08
2022-10-19T17:14:15.294Z,16.00
2022-10-19T17:16:43.313Z,15.96
2022-10-19T17:19:12.354Z,15.88
2022-10-19T17:21:42.508Z,15.83
2022-10-19T17:24:20.169Z,15.79
2022-10-19T17:26:52.058Z,15.74
2022-10-19T17:29:20.770Z,15.65
2022-10-19T17:31:49.335Z,15.56
2022-10-19T17:34:18.078Z,15.48
2022-10-19T17:36:47.301Z,15.44
2022-10-19T17:39:17.737Z,15.41
2022-10-19T17:41:46.056Z,15.35
2022-10-19T17:44:15.522Z,15.33
2022-10-19T17:46:43.684Z,15.26
2022-10-19T17:49:12.470Z,15.20
2022-10-19T17:51:41.355Z,15.11
2022-10-19T17:54:12.393Z,15.03
2022-10-19T17:56:40.787Z,15.05
2022-10-19T17:59:09.221Z,14.99
2022-10-19T18:01:38.777Z,14.93
2022-10-19T18:04:07.236Z,14.92
2022-10-19T18:06:36.488Z,14.87
2022-10-19T18:09:07.391Z,14.81
2022-10-19T18:11:38.822Z,14.71
2022-10-19T18:14:08.316Z,14.72
2022-10-19T18:16:39.674Z,14.69
2022-10-19T18:19:09.044Z,14.66
2022-10-19T18:21:39.470Z,14.59
2022-10-19T18:24:11.302Z,14.50
2022-10-19T18:26:42.353Z,14.43
2022-10-19T18:29:12.275Z,14.40
2022-10-19T18:31:42.089Z,14.36
2022-10-19T18:34:14.165Z,14.33
2022-10-19T18:36:42.273Z,14.33
2022-10-19T18:39:12.389Z,14.34
2022-10-19T18:41:41.150Z,14.31
2022-10-19T18:44:12.222Z,14.26
2022-10-19T18:46:41.688Z,14.22
2022-10-19T18:49:10.238Z,14.21
2022-10-19T18:51:38.315Z,14.21
2022-10-19T18:54:06.690Z,14.17
2022-10-19T18:56:36.548Z,14.13
2022-10-19T18:59:05.032Z,14.11
2022-10-19T19:01:33.209Z,14.07
2022-10-19T19:04:09.020Z,14.03
2022-10-19T19:06:37.755Z,14.01
2022-10-19T19:09:08.134Z,13.97
2022-10-19T19:11:38.309Z,13.90
2022-10-19T19:14:09.384Z,13.86
2022-10-19T19:16:38.651Z,13.82
2022-10-19T19:19:08.792Z,13.75
2022-10-19T19:21:37.489Z,13.75
2022-10-19T19:24:07.315Z,13.69
2022-10-19T19:26:39.005Z,13.69
2022-10-19T19:29:07.103Z,13.67
2022-10-19T19:31:35.250Z,13.65
2022-10-19T19:34:05.798Z,13.59
2022-10-19T19:36:35.243Z,13.55
2022-10-19T19:39:03.637Z,13.51
2022-10-19T19:41:34.072Z,13.47
2022-10-19T19:46:30.267Z,13.37
2022-10-19T19:49:02.889Z,13.32
2022-10-19T19:51:32.189Z,13.29
2022-10-19T19:54:01.661Z,13.27
2022-10-19T19:56:29.956Z,13.24
2022-10-19T19:58:59.654Z,13.16
2022-10-19T20:01:27.854Z,13.15
2022-10-19T20:03:56.031Z,13.15
2022-10-19T20:06:25.982Z,13.09
2022-10-19T20:08:54.752Z,13.10
2022-10-19T20:11:26.102Z,13.04
2022-10-19T20:13:54.158Z,13.01
2022-10-19T20:16:26.675Z,13.00
2022-10-19T20:19:00.313Z,12.96
2022-10-19T20:21:28.377Z,12.92
2022-10-19T20:23:56.342Z,12.86
2022-10-19T20:26:26.608Z,12.82
2022-10-19T20:28:54.713Z,12.74
2022-10-19T20:31:23.077Z,12.76
2022-10-19T20:33:51.219Z,12.76
2022-10-19T20:36:21.099Z,12.75
2022-10-19T20:38:51.240Z,12.71
2022-10-19T20:41:20.669Z,12.70
2022-10-19T20:43:50.181Z,12.69
2022-10-19T20:46:21.074Z,12.68
2022-10-19T20:48:49.915Z,12.63
2022-10-19T20:51:44.359Z,12.55
2022-10-19T20:54:13.255Z,12.48
2022-10-19T20:56:42.500Z,12.42
2022-10-19T20:59:13.519Z,12.40
2022-10-19T21:01:42.836Z,12.34
2022-10-19T21:04:12.659Z,12.31
2022-10-19T21:06:41.965Z,12.31
2022-10-19T21:09:35.044Z,12.24
2022-10-19T21:12:03.062Z,12.23
2022-10-19T21:14:32.550Z,12.24
2022-10-19T21:17:00.988Z,12.22
2022-10-19T21:19:30.860Z,12.20
2022-10-19T21:22:02.293Z,12.15
2022-10-19T21:24:32.430Z,12.15
2022-10-19T21:27:01.923Z,12.08
2022-10-19T21:29:29.921Z,12.07
2022-10-19T21:31:59.285Z,12.06
2022-10-19T21:34:28.832Z,12.05
2022-10-19T21:36:57.270Z,11.96
2022-10-19T21:39:25.517Z,11.92
2022-10-19T21:41:53.641Z,11.90
2022-10-19T21:44:23.187Z,11.87
2022-10-19T21:46:51.383Z,11.87
2022-10-19T21:49:20.755Z,11.79
2022-10-19T21:51:50.275Z,11.77
2022-10-19T21:54:20.035Z,11.80
2022-10-19T21:56:48.576Z,11.78
2022-10-19T21:59:17.404Z,11.79
2022-10-19T22:01:45.549Z,11.82
2022-10-19T22:04:15.140Z,11.81
2022-10-19T22:06:44.952Z,11.77
2022-10-19T22:09:15.809Z,11.76
2022-10-19T22:11:44.381Z,11.72
2022-10-19T22:14:13.682Z,11.78
2022-10-19T22:16:42.317Z,11.74
2022-10-19T22:19:10.575Z,11.69
2022-10-19T22:21:39.201Z,11.69
2022-10-19T22:24:12.002Z,11.54
2022-10-19T22:26:42.465Z,11.57
2022-10-19T22:29:10.586Z,11.54
2022-10-19T22:31:38.695Z,11.48
2022-10-19T22:34:08.663Z,11.49
2022-10-19T22:36:36.729Z,11.53
2022-10-19T22:39:05.039Z,11.53
2022-10-19T22:41:34.384Z,11.53
2022-10-19T22:44:02.442Z,11.52
2022-10-19T22:46:30.489Z,11.49
2022-10-19T22:48:58.480Z,11.46
2022-10-19T22:51:26.552Z,11.50
2022-10-19T22:53:54.636Z,11.45
2022-10-19T22:56:22.664Z,11.46
2022-10-19T22:58:52.023Z,11.43
2022-10-19T23:01:20.132Z,11.44
2022-10-19T23:03:48.182Z,11.41
2022-10-19T23:06:16.491Z,11.41
2022-10-19T23:08:45.362Z,11.41
2022-10-19T23:11:13.801Z,11.41
2022-10-19T23:13:42.237Z,11.38
2022-10-19T23:16:11.675Z,11.41
2022-10-19T23:18:41.457Z,11.32
2022-10-19T23:21:12.285Z,11.31
2022-10-19T23:23:40.813Z,11.36
2022-10-19T23:26:10.883Z,11.34
2022-10-19T23:28:41.518Z,11.36
2022-10-19T23:31:12.629Z,11.37
2022-10-19T23:33:41.115Z,11.35
2022-10-19T23:36:10.855Z,11.35
2022-10-19T23:38:38.845Z,11.36
2022-10-19T23:41:07.130Z,11.33
2022-10-19T23:46:08.304Z,11.39
2022-10-19T23:48:37.990Z,11.38
2022-10-19T23:51:08.409Z,11.37
2022-10-19T23:53:40.995Z,11.33
2022-10-19T23:56:11.273Z,11.30
2022-10-19T23:58:39.344Z,11.30
